sensor_id;sensor_type;location;lat;lon;timestamp;pressure;altitude;pressure_sealevel;temperature;humidity
41706;BME280;27385;51.096;17.190;2023-01-28T00:01:34;100981.35;;;0.85;99.89
41706;BME280;27385;51.096;17.190;2023-01-28T00:04:05;100980.80;;;0.83;99.91
41706;BME280;27385;51.096;17.190;2023-01-28T00:06:35;100978.60;;;0.83;99.95
41706;BME280;27385;51.096;17.190;2023-01-28T00:09:07;100982.06;;;0.84;99.97
41706;BME280;27385;51.096;17.190;2023-01-28T00:11:38;100986.54;;;0.86;99.99
41706;BME280;27385;51.096;17.190;2023-01-28T00:14:11;100985.98;;;0.88;100.00
41706;BME280;27385;51.096;17.190;2023-01-28T00:16:41;100987.94;;;0.87;99.99
41706;BME280;27385;51.096;17.190;2023-01-28T00:19:12;100987.95;;;0.87;99.89
41706;BME280;27385;51.096;17.190;2023-01-28T00:21:44;100984.73;;;0.86;99.99
41706;BME280;27385;51.096;17.190;2023-01-28T00:24:15;100983.08;;;0.86;99.98
41706;BME280;27385;51.096;17.190;2023-01-28T00:26:45;100982.52;;;0.86;100.00
41706;BME280;27385;51.096;17.190;2023-01-28T00:29:16;100982.61;;;0.85;100.00
41706;BME280;27385;51.096;17.190;2023-01-28T00:31:47;100977.27;;;0.83;100.00
41706;BME280;27385;51.096;17.190;2023-01-28T00:34:18;100976.16;;;0.81;100.00
41706;BME280;27385;51.096;17.190;2023-01-28T00:36:49;100971.23;;;0.77;100.00
41706;BME280;27385;51.096;17.190;2023-01-28T00:39:26;100972.57;;;0.78;100.00
41706;BME280;27385;51.096;17.190;2023-01-28T00:41:57;100971.87;;;0.79;100.00
41706;BME280;27385;51.096;17.190;2023-01-28T00:44:28;100970.77;;;0.76;100.00
41706;BME280;27385;51.096;17.190;2023-01-28T00:46:59;100973.05;;;0.77;100.00
41706;BME280;27385;51.096;17.190;2023-01-28T00:49:30;100974.30;;;0.80;100.00
41706;BME280;27385;51.096;17.190;2023-01-28T00:52:01;100971.31;;;0.77;100.00
41706;BME280;27385;51.096;17.190;2023-01-28T00:54:32;100972.10;;;0.77;100.00
41706;BME280;27385;51.096;17.190;2023-01-28T00:57:04;100970.76;;;0.74;100.00
41706;BME280;27385;51.096;17.190;2023-01-28T00:59:36;100968.33;;;0.72;100.00
41706;BME280;27385;51.096;17.190;2023-01-28T01:02:07;100965.51;;;0.75;100.00
41706;BME280;27385;51.096;17.190;2023-01-28T01:04:41;100962.44;;;0.78;100.00
41706;BME280;27385;51.096;17.190;2023-01-28T01:07:24;100963.23;;;0.79;100.00
41706;BME280;27385;51.096;17.190;2023-01-28T01:10:12;100964.56;;;0.80;100.00
41706;BME280;27385;51.096;17.190;2023-01-28T01:12:44;100965.42;;;0.81;100.00
41706;BME280;27385;51.096;17.190;2023-01-28T01:15:16;100970.29;;;0.83;100.00
41706;BME280;27385;51.096;17.190;2023-01-28T01:17:49;100977.18;;;0.85;100.00
41706;BME280;27385;51.096;17.190;2023-01-28T01:20:21;100981.98;;;0.83;100.00
41706;BME280;27385;51.096;17.190;2023-01-28T01:22:53;100983.88;;;0.81;100.00
41706;BME280;27385;51.096;17.190;2023-01-28T01:25:23;100984.42;;;0.79;100.00
41706;BME280;27385;51.096;17.190;2023-01-28T01:27:54;100984.20;;;0.82;100.00
41706;BME280;27385;51.096;17.190;2023-01-28T01:30:25;100989.45;;;0.82;100.00
41706;BME280;27385;51.096;17.190;2023-01-28T01:32:56;100989.06;;;0.82;100.00
41706;BME280;27385;51.096;17.190;2023-01-28T01:35:27;100992.35;;;0.81;100.00
41706;BME280;27385;51.096;17.190;2023-01-28T01:37:58;100995.95;;;0.83;100.00
41706;BME280;27385;51.096;17.190;2023-01-28T01:40:31;100998.79;;;0.84;100.00
41706;BME280;27385;51.096;17.190;2023-01-28T01:43:04;100998.00;;;0.86;100.00
41706;BME280;27385;51.096;17.190;2023-01-28T01:45:44;101007.90;;;0.83;99.94
41706;BME280;27385;51.096;17.190;2023-01-28T01:48:19;101013.16;;;0.83;99.99
41706;BME280;27385;51.096;17.190;2023-01-28T01:50:55;101011.73;;;0.82;99.90
41706;BME280;27385;51.096;17.190;2023-01-28T01:53:28;101014.26;;;0.83;99.89
41706;BME280;27385;51.096;17.190;2023-01-28T01:56:03;101015.77;;;0.82;99.87
41706;BME280;27385;51.096;17.190;2023-01-28T01:58:37;101016.77;;;0.80;99.83
41706;BME280;27385;51.096;17.190;2023-01-28T02:01:09;101016.23;;;0.76;99.89
41706;BME280;27385;51.096;17.190;2023-01-28T02:03:50;101017.64;;;0.74;100.00
41706;BME280;27385;51.096;17.190;2023-01-28T02:06:23;101016.08;;;0.71;100.00
41706;BME280;27385;51.096;17.190;2023-01-28T02:08:56;101014.98;;;0.69;100.00
41706;BME280;27385;51.096;17.190;2023-01-28T02:11:29;101019.52;;;0.69;100.00
41706;BME280;27385;51.096;17.190;2023-01-28T02:14:03;101017.95;;;0.70;100.00
41706;BME280;27385;51.096;17.190;2023-01-28T02:16:34;101020.39;;;0.68;100.00
41706;BME280;27385;51.096;17.190;2023-01-28T02:19:06;101022.75;;;0.66;100.00
41706;BME280;27385;51.096;17.190;2023-01-28T02:22:03;101025.58;;;0.65;100.00
41706;BME280;27385;51.096;17.190;2023-01-28T02:27:57;101020.79;;;0.62;100.00
41706;BME280;27385;51.096;17.190;2023-01-28T02:30:40;101020.79;;;0.60;100.00
41706;BME280;27385;51.096;17.190;2023-01-28T02:33:16;101020.86;;;0.56;100.00
41706;BME280;27385;51.096;17.190;2023-01-28T02:35:51;101023.85;;;0.55;100.00
41706;BME280;27385;51.096;17.190;2023-01-28T02:38:27;101024.40;;;0.53;100.00
41706;BME280;27385;51.096;17.190;2023-01-28T02:41:03;101027.23;;;0.50;100.00
41706;BME280;27385;51.096;17.190;2023-01-28T02:43:37;101028.25;;;0.50;100.00
41706;BME280;27385;51.096;17.190;2023-01-28T02:46:20;101023.77;;;0.50;100.00
41706;BME280;27385;51.096;17.190;2023-01-28T02:49:12;101025.96;;;0.50;100.00
41706;BME280;27385;51.096;17.190;2023-01-28T02:51:57;101027.06;;;0.48;100.00
41706;BME280;27385;51.096;17.190;2023-01-28T02:54:41;101031.61;;;0.48;100.00
41706;BME280;27385;51.096;17.190;2023-01-28T02:57:22;101031.92;;;0.48;100.00
41706;BME280;27385;51.096;17.190;2023-01-28T03:00:03;101030.60;;;0.47;100.00
41706;BME280;27385;51.096;17.190;2023-01-28T03:02:40;101027.06;;;0.46;100.00
41706;BME280;27385;51.096;17.190;2023-01-28T03:05:18;101024.73;;;0.45;100.00
41706;BME280;27385;51.096;17.190;2023-01-28T03:07:50;101025.48;;;0.44;100.00
41706;BME280;27385;51.096;17.190;2023-01-28T03:10:24;101023.92;;;0.45;100.00
41706;BME280;27385;51.096;17.190;2023-01-28T03:12:57;101026.28;;;0.46;100.00
41706;BME280;27385;51.096;17.190;2023-01-28T03:15:48;101028.09;;;0.46;100.00
41706;BME280;27385;51.096;17.190;2023-01-28T03:18:42;101028.16;;;0.42;100.00
41706;BME280;27385;51.096;17.190;2023-01-28T03:21:33;101033.20;;;0.40;100.00
41706;BME280;27385;51.096;17.190;2023-01-28T03:24:25;101032.79;;;0.39;100.00
41706;BME280;27385;51.096;17.190;2023-01-28T03:27:21;101033.73;;;0.37;100.00
41706;BME280;27385;51.096;17.190;2023-01-28T03:30:16;101028.48;;;0.36;100.00
41706;BME280;27385;51.096;17.190;2023-01-28T03:33:06;101031.98;;;0.33;100.00
41706;BME280;27385;51.096;17.190;2023-01-28T03:35:55;101026.04;;;0.31;100.00
41706;BME280;27385;51.096;17.190;2023-01-28T03:38:44;101025.02;;;0.34;100.00
41706;BME280;27385;51.096;17.190;2023-01-28T03:41:22;101029.80;;;0.34;100.00
41706;BME280;27385;51.096;17.190;2023-01-28T03:43:54;101028.94;;;0.34;100.00
41706;BME280;27385;51.096;17.190;2023-01-28T03:46:25;101030.73;;;0.31;100.00
41706;BME280;27385;51.096;17.190;2023-01-28T03:48:56;101029.95;;;0.31;100.00
41706;BME280;27385;51.096;17.190;2023-01-28T03:51:27;101030.11;;;0.33;100.00
41706;BME280;27385;51.096;17.190;2023-01-28T03:53:57;101034.81;;;0.33;100.00
41706;BME280;27385;51.096;17.190;2023-01-28T03:56:28;101040.39;;;0.33;100.00
41706;BME280;27385;51.096;17.190;2023-01-28T03:59:06;101037.73;;;0.30;100.00
41706;BME280;27385;51.096;17.190;2023-01-28T04:01:37;101037.39;;;0.29;100.00
41706;BME280;27385;51.096;17.190;2023-01-28T04:04:08;101040.06;;;0.29;100.00
41706;BME280;27385;51.096;17.190;2023-01-28T04:06:53;101037.71;;;0.28;100.00
41706;BME280;27385;51.096;17.190;2023-01-28T04:09:24;101039.76;;;0.27;100.00
41706;BME280;27385;51.096;17.190;2023-01-28T04:11:55;101042.90;;;0.26;100.00
41706;BME280;27385;51.096;17.190;2023-01-28T04:14:26;101042.58;;;0.23;100.00
41706;BME280;27385;51.096;17.190;2023-01-28T04:16:57;101045.16;;;0.23;100.00
41706;BME280;27385;51.096;17.190;2023-01-28T04:19:28;101044.93;;;0.24;100.00
41706;BME280;27385;51.096;17.190;2023-01-28T04:22:09;101049.71;;;0.26;100.00
41706;BME280;27385;51.096;17.190;2023-01-28T04:24:40;101048.70;;;0.28;100.00
41706;BME280;27385;51.096;17.190;2023-01-28T04:27:11;101049.41;;;0.28;100.00
41706;BME280;27385;51.096;17.190;2023-01-28T04:29:42;101047.76;;;0.30;100.00
41706;BME280;27385;51.096;17.190;2023-01-28T04:32:12;101047.60;;;0.27;100.00
41706;BME280;27385;51.096;17.190;2023-01-28T04:34:43;101050.58;;;0.23;100.00
41706;BME280;27385;51.096;17.190;2023-01-28T04:37:14;101054.11;;;0.22;100.00
41706;BME280;27385;51.096;17.190;2023-01-28T04:39:45;101060.23;;;0.22;100.00
41706;BME280;27385;51.096;17.190;2023-01-28T04:42:16;101063.98;;;0.18;100.00
41706;BME280;27385;51.096;17.190;2023-01-28T04:44:46;101064.83;;;0.16;100.00
41706;BME280;27385;51.096;17.190;2023-01-28T04:47:17;101065.62;;;0.17;100.00
41706;BME280;27385;51.096;17.190;2023-01-28T04:49:48;101066.80;;;0.17;100.00
41706;BME280;27385;51.096;17.190;2023-01-28T04:52:19;101064.13;;;0.17;100.00
41706;BME280;27385;51.096;17.190;2023-01-28T04:54:50;101066.10;;;0.19;100.00
41706;BME280;27385;51.096;17.190;2023-01-28T04:57:21;101066.50;;;0.19;100.00
41706;BME280;27385;51.096;17.190;2023-01-28T04:59:52;101072.85;;;0.18;100.00
41706;BME280;27385;51.096;17.190;2023-01-28T05:02:23;101074.42;;;0.19;100.00
41706;BME280;27385;51.096;17.190;2023-01-28T05:04:54;101077.09;;;0.18;100.00
41706;BME280;27385;51.096;17.190;2023-01-28T05:07:25;101078.74;;;0.20;100.00
41706;BME280;27385;51.096;17.190;2023-01-28T05:09:55;101075.60;;;0.20;100.00
41706;BME280;27385;51.096;17.190;2023-01-28T05:12:26;101077.55;;;0.21;100.00
41706;BME280;27385;51.096;17.190;2023-01-28T05:14:58;101076.39;;;0.21;100.00
41706;BME280;27385;51.096;17.190;2023-01-28T05:17:30;101081.26;;;0.23;100.00
41706;BME280;27385;51.096;17.190;2023-01-28T05:20:00;101077.17;;;0.22;100.00
41706;BME280;27385;51.096;17.190;2023-01-28T05:22:32;101078.66;;;0.21;100.00
41706;BME280;27385;51.096;17.190;2023-01-28T05:25:03;101086.04;;;0.22;100.00
41706;BME280;27385;51.096;17.190;2023-01-28T05:27:34;101086.36;;;0.22;100.00
41706;BME280;27385;51.096;17.190;2023-01-28T05:30:06;101085.25;;;0.19;100.00
41706;BME280;27385;51.096;17.190;2023-01-28T05:32:37;101090.09;;;0.17;100.00
41706;BME280;27385;51.096;17.190;2023-01-28T05:35:09;101096.37;;;0.17;100.00
41706;BME280;27385;51.096;17.190;2023-01-28T05:37:40;101099.73;;;0.15;100.00
41706;BME280;27385;51.096;17.190;2023-01-28T05:40:13;101099.52;;;0.17;100.00
41706;BME280;27385;51.096;17.190;2023-01-28T05:42:44;101103.98;;;0.17;100.00
41706;BME280;27385;51.096;17.190;2023-01-28T05:45:15;101106.41;;;0.15;100.00
41706;BME280;27385;51.096;17.190;2023-01-28T05:47:46;101107.44;;;0.15;100.00
41706;BME280;27385;51.096;17.190;2023-01-28T05:50:17;101105.40;;;0.14;100.00
41706;BME280;27385;51.096;17.190;2023-01-28T05:52:48;101108.05;;;0.11;100.00
41706;BME280;27385;51.096;17.190;2023-01-28T05:55:19;101108.05;;;0.09;100.00
41706;BME280;27385;51.096;17.190;2023-01-28T05:57:50;101102.71;;;0.08;100.00
41706;BME280;27385;51.096;17.190;2023-01-28T06:00:22;101102.70;;;0.09;100.00
41706;BME280;27385;51.096;17.190;2023-01-28T06:02:53;101104.42;;;0.08;100.00
41706;BME280;27385;51.096;17.190;2023-01-28T06:05:24;101104.66;;;0.07;100.00
41706;BME280;27385;51.096;17.190;2023-01-28T06:07:54;101105.52;;;0.03;100.00
41706;BME280;27385;51.096;17.190;2023-01-28T06:10:25;101103.64;;;0.02;100.00
41706;BME280;27385;51.096;17.190;2023-01-28T06:12:56;101109.11;;;0.02;100.00
41706;BME280;27385;51.096;17.190;2023-01-28T06:15:27;101114.21;;;0.02;100.00
41706;BME280;27385;51.096;17.190;2023-01-28T06:17:58;101115.48;;;0.02;100.00
41706;BME280;27385;51.096;17.190;2023-01-28T06:20:29;101113.66;;;0.03;100.00
41706;BME280;27385;51.096;17.190;2023-01-28T06:23:00;101120.02;;;0.02;100.00
41706;BME280;27385;51.096;17.190;2023-01-28T06:25:31;101122.83;;;-0.01;99.88
41706;BME280;27385;51.096;17.190;2023-01-28T06:28:01;101122.10;;;-0.05;99.99
41706;BME280;27385;51.096;17.190;2023-01-28T06:30:32;101125.16;;;-0.04;100.00
41706;BME280;27385;51.096;17.190;2023-01-28T06:33:03;101126.67;;;-0.01;100.00
41706;BME280;27385;51.096;17.190;2023-01-28T06:35:35;101133.52;;;0.00;100.00
41706;BME280;27385;51.096;17.190;2023-01-28T06:38:06;101135.86;;;-0.01;100.00
41706;BME280;27385;51.096;17.190;2023-01-28T06:40:37;101137.35;;;-0.00;100.00
41706;BME280;27385;51.096;17.190;2023-01-28T06:43:08;101137.27;;;0.01;100.00
41706;BME280;27385;51.096;17.190;2023-01-28T06:45:39;101134.92;;;0.02;100.00
41706;BME280;27385;51.096;17.190;2023-01-28T06:48:10;101141.29;;;0.04;100.00
41706;BME280;27385;51.096;17.190;2023-01-28T06:50:41;101143.64;;;0.05;100.00
41706;BME280;27385;51.096;17.190;2023-01-28T06:53:12;101148.04;;;0.07;100.00
41706;BME280;27385;51.096;17.190;2023-01-28T06:55:43;101152.74;;;0.07;100.00
41706;BME280;27385;51.096;17.190;2023-01-28T06:58:14;101150.71;;;0.08;100.00
41706;BME280;27385;51.096;17.190;2023-01-28T07:00:48;101155.48;;;0.05;99.96
41706;BME280;27385;51.096;17.190;2023-01-28T07:03:19;101156.82;;;0.05;99.97
41706;BME280;27385;51.096;17.190;2023-01-28T07:05:50;101158.16;;;0.06;100.00
41706;BME280;27385;51.096;17.190;2023-01-28T07:08:21;101162.00;;;0.06;99.98
41706;BME280;27385;51.096;17.190;2023-01-28T07:10:51;101165.21;;;0.06;99.90
41706;BME280;27385;51.096;17.190;2023-01-28T07:13:22;101167.17;;;0.04;99.89
41706;BME280;27385;51.096;17.190;2023-01-28T07:15:53;101176.17;;;0.03;99.87
41706;BME280;27385;51.096;17.190;2023-01-28T07:18:24;101182.15;;;0.04;99.96
41706;BME280;27385;51.096;17.190;2023-01-28T07:20:54;101187.48;;;0.03;99.97
41706;BME280;27385;51.096;17.190;2023-01-28T07:23:25;101186.52;;;0.01;99.91
41706;BME280;27385;51.096;17.190;2023-01-28T07:26:01;101190.59;;;-0.02;99.75
41706;BME280;27385;51.096;17.190;2023-01-28T07:28:32;101194.09;;;-0.04;99.86
41706;BME280;27385;51.096;17.190;2023-01-28T07:31:03;101191.50;;;-0.05;99.93
41706;BME280;27385;51.096;17.190;2023-01-28T07:33:34;101193.61;;;-0.05;100.00
41706;BME280;27385;51.096;17.190;2023-01-28T07:36:07;101195.36;;;-0.04;100.00
41706;BME280;27385;51.096;17.190;2023-01-28T07:38:37;101192.15;;;-0.04;100.00
41706;BME280;27385;51.096;17.190;2023-01-28T07:41:08;101191.98;;;-0.04;100.00
41706;BME280;27385;51.096;17.190;2023-01-28T07:43:39;101188.84;;;-0.05;99.99
41706;BME280;27385;51.096;17.190;2023-01-28T07:46:10;101192.93;;;-0.04;100.00
41706;BME280;27385;51.096;17.190;2023-01-28T07:48:41;101189.17;;;-0.03;100.00
41706;BME280;27385;51.096;17.190;2023-01-28T07:51:12;101195.69;;;-0.01;100.00
41706;BME280;27385;51.096;17.190;2023-01-28T07:53:43;101191.23;;;-0.00;100.00
41706;BME280;27385;51.096;17.190;2023-01-28T07:56:14;101189.19;;;0.01;99.97
41706;BME280;27385;51.096;17.190;2023-01-28T07:58:44;101190.61;;;0.03;100.00
41706;BME280;27385;51.096;17.190;2023-01-28T08:01:18;101191.80;;;0.04;100.00
41706;BME280;27385;51.096;17.190;2023-01-28T08:03:49;101193.45;;;0.05;100.00
41706;BME280;27385;51.096;17.190;2023-01-28T08:06:20;101193.04;;;0.03;99.95
41706;BME280;27385;51.096;17.190;2023-01-28T08:08:51;101195.16;;;0.04;100.00
41706;BME280;27385;51.096;17.190;2023-01-28T08:11:22;101197.98;;;0.03;99.98
41706;BME280;27385;51.096;17.190;2023-01-28T08:13:52;101198.30;;;0.02;99.89
41706;BME280;27385;51.096;17.190;2023-01-28T08:16:23;101198.37;;;0.01;99.97
41706;BME280;27385;51.096;17.190;2023-01-28T08:18:54;101201.59;;;0.01;100.00
41706;BME280;27385;51.096;17.190;2023-01-28T08:21:25;101205.73;;;0.00;99.93
41706;BME280;27385;51.096;17.190;2023-01-28T08:23:56;101207.93;;;-0.01;99.95
41706;BME280;27385;51.096;17.190;2023-01-28T08:26:27;101212.22;;;-0.04;99.96
41706;BME280;27385;51.096;17.190;2023-01-28T08:28:58;101209.00;;;-0.06;99.95
41706;BME280;27385;51.096;17.190;2023-01-28T08:31:29;101208.77;;;-0.06;100.00
41706;BME280;27385;51.096;17.190;2023-01-28T08:34:00;101210.95;;;-0.06;99.98
41706;BME280;27385;51.096;17.190;2023-01-28T08:36:31;101208.75;;;-0.07;99.99
41706;BME280;27385;51.096;17.190;2023-01-28T08:39:02;101212.74;;;-0.06;99.98
41706;BME280;27385;51.096;17.190;2023-01-28T08:41:34;101211.91;;;-0.05;100.00
41706;BME280;27385;51.096;17.190;2023-01-28T08:44:05;101212.85;;;-0.03;100.00
41706;BME280;27385;51.096;17.190;2023-01-28T08:46:36;101212.69;;;-0.06;99.88
41706;BME280;27385;51.096;17.190;2023-01-28T08:49:07;101212.99;;;-0.07;99.97
41706;BME280;27385;51.096;17.190;2023-01-28T08:51:38;101214.17;;;-0.07;100.00
41706;BME280;27385;51.096;17.190;2023-01-28T08:54:08;101214.16;;;-0.08;99.98
41706;BME280;27385;51.096;17.190;2023-01-28T08:56:39;101217.52;;;-0.10;99.97
41706;BME280;27385;51.096;17.190;2023-01-28T08:59:13;101219.48;;;-0.10;99.99
41706;BME280;27385;51.096;17.190;2023-01-28T09:01:44;101216.75;;;-0.07;100.00
41706;BME280;27385;51.096;17.190;2023-01-28T09:04:15;101218.82;;;-0.02;100.00
41706;BME280;27385;51.096;17.190;2023-01-28T09:06:45;101217.11;;;-0.01;100.00
41706;BME280;27385;51.096;17.190;2023-01-28T09:09:17;101215.27;;;-0.05;99.99
41706;BME280;27385;51.096;17.190;2023-01-28T09:11:47;101214.48;;;-0.07;99.94
41706;BME280;27385;51.096;17.190;2023-01-28T09:14:18;101216.54;;;-0.04;100.00
41706;BME280;27385;51.096;17.190;2023-01-28T09:16:49;101221.95;;;-0.04;100.00
41706;BME280;27385;51.096;17.190;2023-01-28T09:19:20;101222.26;;;-0.04;100.00
41706;BME280;27385;51.096;17.190;2023-01-28T09:21:51;101223.11;;;-0.05;99.97
41706;BME280;27385;51.096;17.190;2023-01-28T09:24:22;101228.38;;;-0.05;100.00
41706;BME280;27385;51.096;17.190;2023-01-28T09:26:54;101231.45;;;-0.01;100.00
41706;BME280;27385;51.096;17.190;2023-01-28T09:29:24;101229.52;;;0.02;100.00
41706;BME280;27385;51.096;17.190;2023-01-28T09:31:56;101235.64;;;0.04;100.00
41706;BME280;27385;51.096;17.190;2023-01-28T09:34:26;101237.21;;;0.03;100.00
41706;BME280;27385;51.096;17.190;2023-01-28T09:36:57;101238.92;;;0.01;99.99
41706;BME280;27385;51.096;17.190;2023-01-28T09:39:28;101241.83;;;0.01;99.98
41706;BME280;27385;51.096;17.190;2023-01-28T09:42:07;101245.36;;;0.03;99.95
41706;BME280;27385;51.096;17.190;2023-01-28T09:44:54;101250.06;;;0.01;99.83
41706;BME280;27385;51.096;17.190;2023-01-28T09:47:34;101250.05;;;-0.01;99.82
41706;BME280;27385;51.096;17.190;2023-01-28T09:50:11;101247.05;;;-0.02;99.82
41706;BME280;27385;51.096;17.190;2023-01-28T09:52:44;101250.11;;;-0.01;100.00
41706;BME280;27385;51.096;17.190;2023-01-28T09:55:21;101249.19;;;-0.01;99.98
41706;BME280;27385;51.096;17.190;2023-01-28T09:57:54;101245.90;;;0.00;99.86
41706;BME280;27385;51.096;17.190;2023-01-28T10:00:31;101252.38;;;-0.02;99.67
41706;BME280;27385;51.096;17.190;2023-01-28T10:03:30;101249.70;;;-0.05;99.61
41706;BME280;27385;51.096;17.190;2023-01-28T10:06:10;101245.23;;;-0.08;99.81
41706;BME280;27385;51.096;17.190;2023-01-28T10:09:02;101248.36;;;-0.07;99.92
41706;BME280;27385;51.096;17.190;2023-01-28T10:11:45;101247.24;;;-0.08;99.93
41706;BME280;27385;51.096;17.190;2023-01-28T10:14:25;101249.75;;;-0.10;99.86
41706;BME280;27385;51.096;17.190;2023-01-28T10:17:06;101248.98;;;-0.08;99.99
41706;BME280;27385;51.096;17.190;2023-01-28T10:19:41;101249.36;;;-0.08;99.84
41706;BME280;27385;51.096;17.190;2023-01-28T10:22:17;101242.23;;;-0.08;99.98
41706;BME280;27385;51.096;17.190;2023-01-28T10:24:53;101243.73;;;-0.06;99.86
41706;BME280;27385;51.096;17.190;2023-01-28T10:27:31;101244.12;;;-0.06;99.75
41706;BME280;27385;51.096;17.190;2023-01-28T10:30:18;101239.03;;;-0.05;99.74
41706;BME280;27385;51.096;17.190;2023-01-28T10:32:55;101240.62;;;-0.03;99.75
41706;BME280;27385;51.096;17.190;2023-01-28T10:35:36;101245.27;;;-0.01;99.80
41706;BME280;27385;51.096;17.190;2023-01-28T10:38:12;101241.71;;;-0.04;99.51
41706;BME280;27385;51.096;17.190;2023-01-28T10:40:44;101241.79;;;-0.04;99.61
41706;BME280;27385;51.096;17.190;2023-01-28T10:43:19;101241.55;;;-0.05;99.48
41706;BME280;27385;51.096;17.190;2023-01-28T10:45:56;101243.98;;;-0.05;99.53
41706;BME280;27385;51.096;17.190;2023-01-28T10:48:31;101244.06;;;-0.05;99.49
41706;BME280;27385;51.096;17.190;2023-01-28T10:51:04;101243.52;;;-0.04;99.55
41706;BME280;27385;51.096;17.190;2023-01-28T10:53:37;101245.02;;;-0.01;99.52
41706;BME280;27385;51.096;17.190;2023-01-28T10:56:11;101244.41;;;0.00;99.37
41706;BME280;27385;51.096;17.190;2023-01-28T10:58:58;101245.59;;;0.02;99.13
41706;BME280;27385;51.096;17.190;2023-01-28T11:01:48;101241.33;;;-0.01;98.83
41706;BME280;27385;51.096;17.190;2023-01-28T11:04:27;101242.95;;;-0.05;98.56
41706;BME280;27385;51.096;17.190;2023-01-28T11:07:00;101243.89;;;-0.07;98.62
41706;BME280;27385;51.096;17.190;2023-01-28T11:09:33;101245.38;;;-0.06;98.66
41706;BME280;27385;51.096;17.190;2023-01-28T11:12:17;101251.23;;;-0.10;98.25
41706;BME280;27385;51.096;17.190;2023-01-28T11:14:52;101250.75;;;-0.14;98.45
41706;BME280;27385;51.096;17.190;2023-01-28T11:17:25;101246.96;;;-0.17;98.40
41706;BME280;27385;51.096;17.190;2023-01-28T11:20:00;101249.77;;;-0.19;98.40
41706;BME280;27385;51.096;17.190;2023-01-28T11:22:41;101249.70;;;-0.17;98.59
41706;BME280;27385;51.096;17.190;2023-01-28T11:25:28;101249.65;;;-0.13;98.77
41706;BME280;27385;51.096;17.190;2023-01-28T11:28:02;101242.69;;;-0.11;98.57
41706;BME280;27385;51.096;17.190;2023-01-28T11:30:37;101240.48;;;-0.10;98.34
41706;BME280;27385;51.096;17.190;2023-01-28T11:33:17;101241.50;;;-0.12;97.86
41706;BME280;27385;51.096;17.190;2023-01-28T11:36:02;101240.72;;;-0.12;98.14
41706;BME280;27385;51.096;17.190;2023-01-28T11:38:34;101237.45;;;-0.09;98.07
41706;BME280;27385;51.096;17.190;2023-01-28T11:41:12;101240.98;;;-0.07;98.24
41706;BME280;27385;51.096;17.190;2023-01-28T11:43:45;101246.35;;;-0.02;98.38
41706;BME280;27385;51.096;17.190;2023-01-28T11:46:31;101247.23;;;0.02;98.40
41706;BME280;27385;51.096;17.190;2023-01-28T11:49:17;101248.50;;;0.02;97.98
41706;BME280;27385;51.096;17.190;2023-01-28T11:51:57;101246.13;;;-0.01;97.54
41706;BME280;27385;51.096;17.190;2023-01-28T11:54:37;101247.45;;;-0.03;97.84
41706;BME280;27385;51.096;17.190;2023-01-28T11:57:24;101253.64;;;-0.02;97.79
41706;BME280;27385;51.096;17.190;2023-01-28T12:00:20;101250.50;;;-0.02;97.68
41706;BME280;27385;51.096;17.190;2023-01-28T12:02:57;101249.95;;;-0.03;97.57
41706;BME280;27385;51.096;17.190;2023-01-28T12:08:32;101241.77;;;-0.05;97.31
41706;BME280;27385;51.096;17.190;2023-01-28T12:11:22;101244.35;;;-0.06;97.11
41706;BME280;27385;51.096;17.190;2023-01-28T12:14:23;101247.73;;;-0.08;96.92
41706;BME280;27385;51.096;17.190;2023-01-28T12:17:06;101243.88;;;-0.09;97.21
41706;BME280;27385;51.096;17.190;2023-01-28T12:19:48;101241.06;;;-0.06;97.32
41706;BME280;27385;51.096;17.190;2023-01-28T12:22:34;101237.91;;;-0.09;96.33
41706;BME280;27385;51.096;17.190;2023-01-28T12:25:19;101237.98;;;-0.10;96.68
41706;BME280;27385;51.096;17.190;2023-01-28T12:28:00;101240.11;;;-0.10;96.50
41706;BME280;27385;51.096;17.190;2023-01-28T12:30:50;101242.98;;;-0.14;95.96
41706;BME280;27385;51.096;17.190;2023-01-28T12:33:39;101241.00;;;-0.18;95.99
41706;BME280;27385;51.096;17.190;2023-01-28T12:36:26;101239.58;;;-0.19;95.71
41706;BME280;27385;51.096;17.190;2023-01-28T12:39:15;101241.57;;;-0.25;95.16
41706;BME280;27385;51.096;17.190;2023-01-28T12:41:52;101243.88;;;-0.32;95.05
41706;BME280;27385;51.096;17.190;2023-01-28T12:44:30;101240.31;;;-0.36;94.95
41706;BME280;27385;51.096;17.190;2023-01-28T12:47:06;101234.84;;;-0.36;95.75
41706;BME280;27385;51.096;17.190;2023-01-28T12:49:43;101239.39;;;-0.35;95.60
41706;BME280;27385;51.096;17.190;2023-01-28T12:52:19;101243.31;;;-0.34;95.73
41706;BME280;27385;51.096;17.190;2023-01-28T12:54:58;101252.73;;;-0.33;95.37
41706;BME280;27385;51.096;17.190;2023-01-28T12:57:33;101252.41;;;-0.35;95.23
41706;BME280;27385;51.096;17.190;2023-01-28T13:00:17;101254.88;;;-0.39;94.46
41706;BME280;27385;51.096;17.190;2023-01-28T13:02:57;101255.30;;;-0.44;94.34
41706;BME280;27385;51.096;17.190;2023-01-28T13:05:36;101254.84;;;-0.53;93.61
41706;BME280;27385;51.096;17.190;2023-01-28T13:08:12;101257.86;;;-0.57;93.78
41706;BME280;27385;51.096;17.190;2023-01-28T13:10:48;101261.83;;;-0.61;93.74
41706;BME280;27385;51.096;17.190;2023-01-28T13:13:26;101261.87;;;-0.64;92.93
41706;BME280;27385;51.096;17.190;2023-01-28T13:15:59;101258.88;;;-0.67;93.14
41706;BME280;27385;51.096;17.190;2023-01-28T13:18:43;101259.30;;;-0.70;93.31
41706;BME280;27385;51.096;17.190;2023-01-28T13:21:27;101262.92;;;-0.71;94.23
41706;BME280;27385;51.096;17.190;2023-01-28T13:24:22;101258.99;;;-0.71;93.74
41706;BME280;27385;51.096;17.190;2023-01-28T13:27:20;101260.79;;;-0.72;93.91